Time;durP1;ratioP1;P1;durP2;ratioP2;P2;SDS_P1;SDS_P2;PMS_P1;PMS_P2;Temp;Humidity;BMP_temperature;BMP_pressure;BME280_temperature;BME280_humidity;BME280_pressure;Samples;Min_cycle;Max_cycle;Signal;HPM_P1;HPM_P2
2022/02/05 00:04:05;;;;;;;33.92;19.00;;;;;;;10.11;69.13;100421.53;5084695;28;20028;-78
2022/02/05 00:06:35;;;;;;;26.63;17.65;;;;;;;10.12;68.89;100425.91;5066901;28;20050;-78
2022/02/05 00:14:42;;;;;;;24.92;15.68;;;;;;;10.08;69.40;100420.28;5084504;28;20066;-78
2022/02/05 00:39:58;;;;;;;18.90;12.00;;;;;;;10.12;68.93;100414.78;5082043;28;20094;-78
2022/02/05 00:42:33;;;;;;;23.35;11.13;;;;;;;10.09;69.40;100409.97;5079341;28;20114;-78
2022/02/05 00:45:06;;;;;;;14.85;7.45;;;;;;;10.00;69.47;100389.84;5063922;28;20462;-78
2022/02/05 00:47:33;;;;;;;33.13;13.25;;;;;;;10.09;68.34;100388.53;5064328;28;20364;-78
2022/02/05 00:50:01;;;;;;;23.50;11.68;;;;;;;10.21;69.08;100416.25;5064218;28;20374;-78
2022/02/05 00:52:27;;;;;;;38.90;16.35;;;;;;;10.21;69.41;100412.69;5065940;28;20058;-79
2022/02/05 00:55:04;;;;;;;33.80;15.90;;;;;;;10.15;69.34;100408.53;5064407;28;20039;-79
2022/02/05 00:57:47;;;;;;;29.52;13.65;;;;;;;10.11;69.99;100407.63;5060083;28;20029;-78
2022/02/05 01:00:19;;;;;;;21.35;9.95;;;;;;;10.11;70.91;100407.63;5060870;28;20538;-78
2022/02/05 01:02:47;;;;;;;15.57;7.55;;;;;;;10.11;71.18;100404.84;5078894;28;20471;-79
2022/02/05 01:05:17;;;;;;;28.30;8.82;;;;;;;10.09;71.47;100407.19;5060852;28;20059;-79
2022/02/05 01:07:48;;;;;;;18.38;8.20;;;;;;;9.92;70.54;100377.72;5060467;28;20027;-78
2022/02/05 01:10:20;;;;;;;15.30;9.23;;;;;;;10.11;71.28;100407.63;5062210;28;20417;-78
2022/02/05 01:12:53;;;;;;;16.38;8.23;;;;;;;10.14;70.47;100404.16;5061088;28;20033;-78
2022/02/05 01:15:23;;;;;;;21.40;10.27;;;;;;;10.13;70.12;100394.19;5060951;28;20109;-78
2022/02/05 01:18:01;;;;;;;20.05;10.43;;;;;;;10.12;69.63;100378.66;5060874;28;20493;-78
2022/02/05 01:24:07;;;;;;;22.92;11.98;;;;;;;10.16;69.93;100387.91;5016926;28;20037;-78
2022/02/05 01:26:36;;;;;;;22.00;9.93;;;;;;;10.10;70.62;100383.78;5014606;28;20034;-78
2022/02/05 01:29:26;;;;;;;19.52;9.57;;;;;;;10.10;70.35;100381.00;5050227;28;20047;-78
2022/02/05 01:31:56;;;;;;;23.85;11.27;;;;;;;10.09;70.45;100385.75;5062323;28;20467;-78
2022/02/05 01:34:35;;;;;;;27.63;12.68;;;;;;;10.08;70.27;100386.09;5060754;28;20036;-78
2022/02/05 01:56:13;;;;;;;20.48;9.40;;;;;;;9.95;69.95;100358.34;5060133;28;20076;-78
2022/02/05 02:07:24;;;;;;;21.35;9.98;;;;;;;10.04;68.63;100349.84;5058464;28;20395;-78
2022/02/05 02:10:15;;;;;;;17.35;9.57;;;;;;;10.03;69.41;100353.00;5057721;28;20029;-78
2022/02/05 02:12:49;;;;;;;12.55;7.93;;;;;;;9.92;69.41;100338.81;5059706;28;20049;-78
2022/02/05 02:15:25;;;;;;;21.42;8.38;;;;;;;9.83;69.47;100324.25;5059056;28;20056;-78
2022/02/05 02:18:19;;;;;;;21.27;9.40;;;;;;;9.91;69.45;100342.75;5059218;28;20037;-78
2022/02/05 02:28:42;;;;;;;13.35;7.78;;;;;;;9.76;69.37;100341.53;5060809;28;20135;-79
2022/02/05 02:31:13;;;;;;;13.32;7.35;;;;;;;9.77;69.72;100348.72;5061066;28;20021;-79
2022/02/05 02:33:44;;;;;;;15.65;8.27;;;;;;;9.74;69.56;100346.63;5060315;28;20044;-79
2022/02/05 02:36:25;;;;;;;31.75;10.57;;;;;;;9.69;69.31;100336.59;5074235;28;20106;-78
2022/02/05 02:38:55;;;;;;;24.92;8.93;;;;;;;9.69;69.02;100338.53;5063537;28;20029;-78
2022/02/05 02:41:31;;;;;;;41.72;12.73;;;;;;;9.55;68.77;100319.50;5063073;28;20032;-78
2022/02/05 02:43:56;;;;;;;40.10;14.20;;;;;;;9.68;67.79;100331.38;5063524;28;20028;-78
2022/02/05 02:46:24;;;;;;;22.60;8.45;;;;;;;9.73;67.91;100338.66;5063723;28;20029;-78
2022/02/05 02:48:56;;;;;;;13.02;7.40;;;;;;;9.64;68.02;100322.13;5064394;28;20036;-78
2022/02/05 02:57:11;;;;;;;15.13;8.02;;;;;;;9.57;68.95;100327.47;5082466;28;19915;-78
2022/02/05 02:59:49;;;;;;;16.88;7.43;;;;;;;9.56;68.96;100331.41;5065116;28;20060;-79
2022/02/05 03:02:25;;;;;;;14.55;7.18;;;;;;;9.51;68.74;100323.34;5082500;28;20036;-78
2022/02/05 03:04:53;;;;;;;10.38;6.38;;;;;;;9.53;68.23;100327.38;5081612;28;20028;-78
2022/02/05 03:07:22;;;;;;;18.98;7.32;;;;;;;9.53;68.80;100332.13;5043759;28;20143;-78
2022/02/05 03:09:53;;;;;;;15.45;6.05;;;;;;;9.53;69.04;100332.91;5078325;28;20039;-78
2022/02/05 03:12:20;;;;;;;11.80;6.60;;;;;;;9.53;68.54;100337.66;5061450;28;20092;-79
2022/02/05 03:14:51;;;;;;;10.13;5.63;;;;;;;9.48;68.59;100329.59;5062882;28;20083;-79
2022/02/05 03:17:24;;;;;;;13.98;5.95;;;;;;;9.56;67.92;100323.91;5079648;28;20036;-78
2022/02/05 03:19:55;;;;;;;7.65;5.93;;;;;;;9.60;68.28;100332.34;5058296;28;20044;-78
2022/02/05 03:22:26;;;;;;;13.38;5.88;;;;;;;9.53;68.38;100334.88;5057967;28;20028;-78
2022/02/05 03:24:51;;;;;;;10.02;5.45;;;;;;;9.54;68.46;100337.34;5057920;28;20028;-78
2022/02/05 03:27:19;;;;;;;10.65;5.50;;;;;;;9.49;68.24;100332.03;5058429;28;20486;-78
2022/02/05 03:29:48;;;;;;;14.23;5.10;;;;;;;9.49;66.87;100339.56;5058269;28;20024;-78
2022/02/05 03:32:16;;;;;;;9.75;4.80;;;;;;;9.52;65.26;100325.75;5058436;28;20032;-78
2022/02/05 03:34:44;;;;;;;7.25;4.25;;;;;;;9.53;66.06;100337.66;5058710;28;20029;-78
2022/02/05 03:37:12;;;;;;;9.07;5.00;;;;;;;9.59;66.05;100341.84;5057702;28;20037;-78
2022/02/05 03:39:47;;;;;;;11.75;5.30;;;;;;;9.54;65.67;100334.56;5059252;28;20036;-78
2022/02/05 03:42:17;;;;;;;10.25;5.18;;;;;;;9.61;65.84;100342.28;5058192;28;20035;-78
2022/02/05 03:44:45;;;;;;;7.82;5.25;;;;;;;9.51;66.06;100340.00;5058736;28;20036;-78
2022/02/05 03:47:16;;;;;;;6.20;4.60;;;;;;;9.49;66.74;100345.91;5078949;28;20044;-78
2022/02/05 03:49:42;;;;;;;8.63;4.85;;;;;;;9.40;66.72;100343.25;5059513;28;20036;-78
2022/02/05 03:52:08;;;;;;;13.25;4.22;;;;;;;9.29;65.91;100336.59;5059898;28;20387;-78
2022/02/05 03:54:36;;;;;;;10.85;3.90;;;;;;;9.37;65.59;100346.72;5058542;28;20025;-78
2022/02/05 03:57:02;;;;;;;10.73;4.20;;;;;;;9.40;64.03;100356.34;5042539;28;20025;-78
2022/02/05 03:59:28;;;;;;;9.63;3.30;;;;;;;9.29;64.40;100339.38;5059442;28;20517;-78
2022/02/05 04:01:56;;;;;;;7.72;3.85;;;;;;;9.38;63.61;100355.91;5058866;28;20364;-77
2022/02/05 04:04:27;;;;;;;7.50;4.50;;;;;;;9.16;63.40;100323.88;5058714;28;20024;-77
2022/02/05 04:06:53;;;;;;;10.85;4.70;;;;;;;9.28;63.46;100357.19;5058694;28;20021;-77
2022/02/05 04:09:27;;;;;;;9.63;4.72;;;;;;;9.35;64.92;100365.72;5058985;28;20036;-78
2022/02/05 04:17:10;;;;;;;12.32;3.92;;;;;;;9.20;66.34;100374.78;5076612;28;20040;-77
2022/02/05 04:19:36;;;;;;;12.18;4.50;;;;;;;9.06;66.11;100366.00;5058174;28;20029;-77
2022/02/05 04:22:05;;;;;;;6.00;3.90;;;;;;;9.05;66.07;100378.25;5058505;28;20086;-78
2022/02/05 04:24:35;;;;;;;12.27;4.82;;;;;;;9.13;66.63;100375.34;5058893;28;20067;-77
2022/02/05 04:27:01;;;;;;;8.18;2.85;;;;;;;9.11;65.95;100372.13;5058310;28;20082;-77
2022/02/05 04:29:31;;;;;;;7.05;3.47;;;;;;;9.02;65.38;100365.88;5057974;28;20429;-77
2022/02/05 04:32:02;;;;;;;10.55;3.72;;;;;;;9.01;65.86;100366.25;5059101;28;20493;-78
2022/02/05 04:34:28;;;;;;;7.10;3.92;;;;;;;8.98;66.06;100366.94;5062041;28;20055;-77
2022/02/05 04:36:59;;;;;;;9.13;2.88;;;;;;;8.92;66.52;100369.94;5062043;28;20044;-78
2022/02/05 04:39:27;;;;;;;7.45;4.18;;;;;;;8.89;66.58;100376.19;5062422;28;20467;-78
2022/02/05 04:42:07;;;;;;;8.25;3.92;;;;;;;8.83;66.43;100366.47;5079744;28;20119;-77
2022/02/05 05:03:42;;;;;;;10.63;5.10;;;;;;;8.89;63.41;100376.19;5082637;28;20074;-78
2022/02/05 05:19:49;;;;;;;39.92;25.05;;;;;;;9.02;64.70;100390.06;5065081;28;20043;-78
2022/02/05 05:22:21;;;;;;;19.77;12.68;;;;;;;8.96;64.99;100374.81;5064425;28;20070;-78
2022/02/05 05:24:46;;;;;;;20.73;11.88;;;;;;;8.76;65.85;100366.22;5065324;28;20055;-78
2022/02/05 05:27:14;;;;;;;30.50;18.40;;;;;;;8.90;66.66;100399.19;5065666;28;20038;-78
2022/02/05 05:29:40;;;;;;;20.98;8.98;;;;;;;8.92;65.84;100385.78;5064955;28;20032;-78
2022/02/05 05:32:06;;;;;;;14.93;7.32;;;;;;;9.08;65.71;100399.78;5063909;28;20067;-78
2022/02/05 05:34:35;;;;;;;13.18;7.57;;;;;;;8.88;65.76;100391.19;5059852;28;20024;-78
2022/02/05 05:37:03;;;;;;;10.40;6.57;;;;;;;8.80;66.09;100394.91;5062232;28;20052;-79
2022/02/05 05:39:32;;;;;;;10.50;5.57;;;;;;;8.64;66.13;100386.47;5062544;28;20039;-78
2022/02/05 05:42:06;;;;;;;13.50;6.22;;;;;;;8.68;67.03;100400.44;5061234;28;20036;-78
2022/02/05 05:45:04;;;;;;;7.30;5.00;;;;;;;8.63;66.85;100401.50;5060050;28;20068;-78
2022/02/05 05:47:35;;;;;;;15.30;5.22;;;;;;;8.57;66.59;100390.94;5061667;28;20037;-78
2022/02/05 05:50:10;;;;;;;18.40;7.45;;;;;;;8.68;66.22;100400.44;5061485;28;20036;-78
2022/02/05 05:52:41;;;;;;;12.65;6.05;;;;;;;8.69;65.72;100410.41;5058580;28;20025;-78
2022/02/05 05:55:12;;;;;;;13.48;5.10;;;;;;;8.69;65.59;100415.13;5056483;28;20025;-78
2022/02/05 05:57:41;;;;;;;14.05;6.55;;;;;;;8.63;66.29;100411.78;5056211;28;20025;-78
2022/02/05 06:00:07;;;;;;;10.70;6.50;;;;;;;8.60;66.99;100402.16;5056489;28;20032;-78
2022/02/05 06:02:35;;;;;;;18.92;6.82;;;;;;;8.59;66.98;100410.84;5056078;28;20029;-78
2022/02/05 06:05:01;;;;;;;12.00;6.50;;;;;;;8.55;67.14;100412.66;5055479;28;20033;-78
2022/02/05 06:07:30;;;;;;;10.95;7.78;;;;;;;8.53;67.76;100406.66;5056450;28;20035;-78
2022/02/05 06:09:58;;;;;;;20.00;8.52;;;;;;;8.51;67.91;100412.53;5056049;28;20040;-78
2022/02/05 06:12:26;;;;;;;18.80;8.27;;;;;;;8.55;67.54;100421.78;5056270;28;20021;-78
2022/02/05 06:14:58;;;;;;;15.27;7.20;;;;;;;8.54;67.38;100420.19;5056835;28;20383;-78
2022/02/05 06:17:32;;;;;;;18.23;8.20;;;;;;;8.58;67.67;100414.78;5057073;28;20029;-78
2022/02/05 06:20:02;;;;;;;;;;;;;;;8.59;68.04;100417.19;5056133;28;20029;-78
2022/02/05 06:22:33;;;;;;;13.23;7.47;;;;;;;8.57;67.57;100410.34;5056532;28;19943;-78
2022/02/05 06:25:04;;;;;;;13.40;7.78;;;;;;;8.62;67.67;100407.34;5056097;28;20038;-78
2022/02/05 06:27:33;;;;;;;18.88;9.00;;;;;;;8.73;67.01;100413.28;5051120;28;20455;-78
2022/02/05 06:30:06;;;;;;;22.33;10.80;;;;;;;8.78;66.78;100408.31;5056785;28;20021;-78
2022/02/05 06:32:32;;;;;;;15.05;10.68;;;;;;;8.88;66.94;100420.91;5055514;28;20033;-78
2022/02/05 06:35:03;;;;;;;17.60;11.15;;;;;;;8.99;66.01;100410.16;5059160;28;20089;-77
2022/02/05 06:37:31;;;;;;;16.33;8.32;;;;;;;9.24;65.42;100403.47;5060564;28;20109;-77
2022/02/05 06:39:59;;;;;;;18.38;8.35;;;;;;;9.53;64.96;100409.88;5059683;28;20063;-77
2022/02/05 06:42:25;;;;;;;11.13;7.07;;;;;;;9.79;64.21;100415.03;5059832;28;20027;-78
2022/02/05 06:44:51;;;;;;;12.60;7.45;;;;;;;10.14;64.14;100410.50;5059134;28;20115;-78
2022/02/05 06:47:16;;;;;;;12.88;8.43;;;;;;;10.85;61.90;100417.19;5060156;28;20025;-78
2022/02/05 06:49:42;;;;;;;13.70;5.78;;;;;;;11.44;59.79;100416.22;5060054;28;20044;-78
2022/02/05 06:52:10;;;;;;;10.82;5.72;;;;;;;12.13;57.18;100410.16;5058862;28;20081;-78
2022/02/05 06:54:36;;;;;;;15.07;6.78;;;;;;;12.72;54.64;100411.69;5058667;28;20035;-78
2022/02/05 06:57:02;;;;;;;13.15;5.93;;;;;;;13.17;53.17;100410.06;5059623;28;20028;-78
2022/02/05 06:59:28;;;;;;;14.95;6.68;;;;;;;13.27;52.58;100401.88;5060089;28;20033;-77
2022/02/05 07:01:56;;;;;;;9.38;6.25;;;;;;;13.44;51.81;100408.91;5059151;28;20500;-78
2022/02/05 07:04:26;;;;;;;14.45;7.50;;;;;;;13.42;50.42;100394.50;5057861;28;20131;-77
2022/02/05 07:06:56;;;;;;;21.05;9.27;;;;;;;14.34;49.09;100405.28;5060008;28;20475;-77
2022/02/05 07:09:23;;;;;;;17.20;8.70;;;;;;;15.01;46.32;100407.94;5079215;28;20036;-77
2022/02/05 07:11:51;;;;;;;20.27;10.18;;;;;;;15.55;45.95;100397.91;5058772;28;20039;-79
2022/02/05 07:14:18;;;;;;;21.50;12.25;;;;;;;16.28;44.29;100416.72;5076024;28;20371;-78
2022/02/05 07:16:54;;;;;;;29.65;11.30;;;;;;;16.88;42.92;100422.50;5056480;28;20025;-80
2022/02/05 07:19:29;;;;;;;24.20;12.52;;;;;;;16.86;41.03;100370.72;5056298;28;20071;-79
2022/02/05 07:21:55;;;;;;;22.33;12.43;;;;;;;17.78;40.47;100424.06;5055664;28;20028;-81
2022/02/05 07:29:36;;;;;;;14.05;8.73;;;;;;;17.79;39.54;100431.31;5073880;28;20090;-80
2022/02/05 07:32:02;;;;;;;15.27;8.25;;;;;;;17.51;40.17;100431.34;5055367;28;20020;-80
2022/02/05 07:34:30;;;;;;;19.67;8.20;;;;;;;17.25;39.94;100426.94;5055802;28;20119;-80
2022/02/05 07:37:02;;;;;;;15.38;6.18;;;;;;;16.59;41.08;100426.44;5051707;28;20132;-80
2022/02/05 07:39:41;;;;;;;11.52;5.57;;;;;;;16.49;41.36;100426.03;5052031;28;20029;-80
2022/02/05 07:42:07;;;;;;;8.70;4.97;;;;;;;15.98;41.43;100426.25;5052840;28;20025;-80
2022/02/05 07:44:36;;;;;;;9.75;6.18;;;;;;;16.65;40.50;100425.66;5052022;28;20036;-78
2022/02/05 07:47:02;;;;;;;19.58;6.60;;;;;;;16.72;40.22;100436.13;5052182;28;20037;-80
2022/02/05 07:49:35;;;;;;;6.75;3.03;;;;;;;16.76;39.77;100439.75;5052014;28;20138;-80
2022/02/05 07:52:01;;;;;;;;;;;;;;;16.59;39.11;100441.31;5052246;28;20040;-81
2022/02/05 07:54:27;;;;;;;13.18;4.30;;;;;;;15.80;39.01;100433.75;5052732;28;19909;-79
2022/02/05 07:56:55;;;;;;;7.22;3.13;;;;;;;15.83;39.86;100421.78;5051570;28;20063;-80
2022/02/05 07:59:20;;;;;;;10.13;3.67;;;;;;;15.69;41.07;100434.50;5051950;28;20044;-79
2022/02/05 08:01:48;;;;;;;10.30;3.92;;;;;;;15.34;41.16;100423.84;5051861;28;20024;-79
2022/02/05 08:04:14;;;;;;;9.57;3.55;;;;;;;15.60;41.65;100439.63;5051802;28;20029;-79
2022/02/05 08:06:45;;;;;;;11.35;5.55;;;;;;;15.02;41.97;100443.19;5051941;28;20116;-79
2022/02/05 08:09:25;;;;;;;10.20;4.32;;;;;;;15.39;41.52;100433.84;5055813;28;20056;-79
2022/02/05 08:11:59;;;;;;;13.10;7.05;;;;;;;15.78;41.16;100438.97;5057549;28;20115;-79
2022/02/05 08:14:27;;;;;;;15.50;4.03;;;;;;;15.26;41.97;100446.59;5055783;28;20102;-79
2022/02/05 08:17:06;;;;;;;8.60;3.25;;;;;;;15.08;42.16;100436.03;5057438;28;20040;-79
2022/02/05 08:19:32;;;;;;;9.15;3.50;;;;;;;15.28;41.35;100438.59;5055893;28;20052;-79
2022/02/05 08:21:59;;;;;;;12.18;4.35;;;;;;;15.08;42.38;100441.66;5055826;28;20025;-79
2022/02/05 08:24:25;;;;;;;7.70;4.07;;;;;;;14.88;43.11;100423.44;5055450;28;20067;-79
2022/02/05 08:26:55;;;;;;;7.28;3.50;;;;;;;14.94;42.54;100435.91;5055395;28;20029;-78
2022/02/05 08:29:23;;;;;;;12.20;4.22;;;;;;;14.63;43.85;100429.59;5055626;28;20033;-79
2022/02/05 08:31:48;;;;;;;12.65;4.72;;;;;;;14.51;44.41;100423.47;5055308;28;20116;-79
2022/02/05 08:34:15;;;;;;;12.35;5.05;;;;;;;14.62;44.31;100433.59;5055449;28;20119;-79
2022/02/05 08:36:51;;;;;;;10.52;4.60;;;;;;;14.37;44.53;100441.69;5055328;28;20076;-79
2022/02/05 08:39:17;;;;;;;9.55;4.90;;;;;;;14.63;44.60;100442.81;5055118;28;20032;-79
2022/02/05 08:41:44;;;;;;;15.68;5.75;;;;;;;14.60;44.10;100433.19;5055442;28;20036;-79
2022/02/05 08:44:13;;;;;;;9.63;4.57;;;;;;;14.52;44.57;100434.28;5055297;28;20056;-78
2022/02/05 08:46:42;;;;;;;8.27;3.78;;;;;;;14.59;44.40;100445.56;5056016;28;20601;-78
2022/02/05 08:49:10;;;;;;;4.97;3.33;;;;;;;14.71;43.80;100446.50;5055827;28;20422;-77
2022/02/05 08:51:38;;;;;;;11.55;6.55;;;;;;;14.85;43.81;100449.41;5055285;28;20057;-76
2022/02/05 08:54:04;;;;;;;9.68;4.00;;;;;;;14.66;43.72;100414.03;5055648;28;20029;-76
2022/02/05 08:56:32;;;;;;;7.65;3.65;;;;;;;14.59;44.14;100448.34;5056392;28;20483;-78
2022/02/05 08:58:59;;;;;;;8.98;4.10;;;;;;;14.49;44.34;100465.03;5055394;28;20116;-78
2022/02/05 09:01:41;;;;;;;6.22;3.70;;;;;;;14.51;44.71;100469.06;5055375;28;20025;-79
2022/02/05 09:04:32;;;;;;;11.57;4.22;;;;;;;14.48;44.26;100455.03;5055514;28;20116;-79
2022/02/05 09:06:59;;;;;;;9.02;4.43;;;;;;;14.75;44.47;100472.53;5054930;28;20040;-79
2022/02/05 09:12:17;;;;;;;8.02;4.25;;;;;;;14.65;44.49;100472.06;5056670;28;20044;-78
2022/02/05 09:14:48;;;;;;;13.70;5.38;;;;;;;14.57;45.34;100478.75;5054975;28;20032;-78
2022/02/05 09:17:16;;;;;;;12.98;4.25;;;;;;;14.73;44.77;100470.13;5054596;28;20058;-80
2022/02/05 09:19:42;;;;;;;14.15;6.22;;;;;;;14.59;44.78;100456.75;5055442;28;20487;-79
2022/02/05 09:22:09;;;;;;;12.68;5.68;;;;;;;14.86;43.92;100474.28;5054506;28;20106;-78
2022/02/05 09:24:36;;;;;;;13.75;5.50;;;;;;;15.17;44.35;100470.13;5054754;28;20029;-78
2022/02/05 09:27:05;;;;;;;10.82;4.18;;;;;;;15.61;43.38;100479.72;5056218;28;20553;-78
2022/02/05 09:29:40;;;;;;;16.98;5.00;;;;;;;16.22;42.32;100464.03;5054723;28;20613;-80
2022/02/05 09:32:06;;;;;;;19.25;7.85;;;;;;;16.43;41.83;100468.94;5054933;28;20401;-81
2022/02/05 09:34:34;;;;;;;27.08;11.13;;;;;;;16.69;41.25;100476.25;5054031;28;20033;-80
2022/02/05 09:37:00;;;;;;;24.35;11.10;;;;;;;16.93;41.31;100474.72;5053606;28;20094;-80
2022/02/05 09:39:25;;;;;;;20.40;10.52;;;;;;;16.99;40.83;100473.09;5054271;28;20116;-80
2022/02/05 09:41:56;;;;;;;9.27;4.05;;;;;;;16.59;41.42;100477.81;5054478;28;20040;-80
2022/02/05 09:44:30;;;;;;;14.18;5.30;;;;;;;17.43;39.50;100480.38;5054916;28;20410;-80
2022/02/05 09:46:55;;;;;;;;;;;;;;;17.41;39.29;100477.16;5054983;28;20037;-80
2022/02/05 09:49:27;;;;;;;10.00;4.65;;;;;;;17.55;39.60;100475.13;5054034;28;20275;-80
2022/02/05 09:52:10;;;;;;;18.92;9.60;;;;;;;17.08;39.66;100453.84;5054229;28;20033;-80
2022/02/05 09:54:37;;;;;;;69.87;35.97;;;;;;;17.34;39.92;100482.78;5053870;28;20039;-80
2022/02/05 09:57:03;;;;;;;17.50;7.53;;;;;;;17.26;39.85;100482.78;5054322;28;20064;-80
2022/02/05 09:59:56;;;;;;;18.52;6.53;;;;;;;17.94;39.54;100465.03;5053880;28;20021;-80
2022/02/05 10:02:31;;;;;;;10.02;4.03;;;;;;;18.24;38.63;100470.97;5048853;28;20056;-81
2022/02/05 10:05:07;;;;;;;12.77;3.67;;;;;;;18.32;39.05;100466.94;5054113;28;20405;-81
2022/02/05 10:07:50;;;;;;;10.02;3.15;;;;;;;18.16;38.39;100458.13;5055046;28;20063;-82
2022/02/05 10:10:16;;;;;;;13.20;4.38;;;;;;;18.61;38.73;100463.97;5053954;28;20147;-80
2022/02/05 10:12:47;;;;;;;14.23;4.53;;;;;;;18.70;37.85;100447.44;5053292;28;20067;-81
2022/02/05 10:15:13;;;;;;;13.00;5.05;;;;;;;18.85;37.80;100456.59;5053225;28;20032;-82
2022/02/05 10:17:53;;;;;;;14.48;4.40;;;;;;;19.61;35.94;100458.44;5053266;28;20033;-81
2022/02/05 10:20:21;;;;;;;11.90;4.82;;;;;;;20.12;35.65;100453.03;5053515;28;20032;-81
2022/02/05 10:22:47;;;;;;;10.95;4.05;;;;;;;20.64;34.23;100444.34;5052962;28;20033;-79
2022/02/05 10:25:18;;;;;;;12.80;3.97;;;;;;;20.18;34.67;100442.06;5052759;28;20059;-79
2022/02/05 10:27:48;;;;;;;17.13;4.70;;;;;;;20.24;35.01;100444.03;5053551;28;20083;-79
2022/02/05 10:30:24;;;;;;;12.85;5.55;;;;;;;19.69;35.21;100442.22;5051894;28;20028;-79
2022/02/05 10:33:30;;;;;;;15.50;6.25;;;;;;;18.99;36.60;100441.59;5054347;28;20167;-79
2022/02/05 10:36:14;;;;;;;11.07;4.07;;;;;;;18.06;37.32;100394.25;5047725;28;20059;-78
2022/02/05 10:43:54;;;;;;;15.13;5.15;;;;;;;18.23;39.10;100393.34;5054101;28;20040;-80
2022/02/05 10:46:35;;;;;;;13.43;5.75;;;;;;;18.44;38.45;100422.63;5052606;28;20029;-80
2022/02/05 10:49:03;;;;;;;12.48;6.60;;;;;;;17.78;39.58;100423.25;5052578;28;20044;-81
2022/02/05 10:51:44;;;;;;;12.82;5.97;;;;;;;17.55;39.97;100415.25;5052475;28;20479;-79
2022/02/05 10:54:36;;;;;;;15.90;5.45;;;;;;;17.03;41.66;100400.84;5052592;28;20036;-79
2022/02/05 10:57:19;;;;;;;11.60;5.90;;;;;;;17.42;40.03;100412.06;5038779;28;20036;-81
2022/02/05 11:05:11;;;;;;;74.57;43.65;;;;;;;17.31;40.56;100410.47;5053741;28;20125;-76
2022/02/05 11:05:40;;;;;;;35.10;15.80;;;;;;;17.28;41.20;100417.69;5054250;28;20438;-78
2022/02/05 11:08:06;;;;;;;14.65;7.00;;;;;;;17.22;40.74;100394.81;5052682;28;20409;-79
2022/02/05 11:16:47;;;;;;;15.32;6.50;;;;;;;17.12;41.61;100409.69;5053576;28;20128;-80
2022/02/05 11:19:11;;;;;;;10.23;6.18;;;;;;;17.40;41.15;100402.41;5053179;28;20102;-80
2022/02/05 11:21:40;;;;;;;14.70;3.63;;;;;;;17.32;41.12;100396.00;5052598;28;20436;-79
2022/02/05 11:24:07;;;;;;;16.35;6.78;;;;;;;16.85;41.46;100349.47;5053103;28;20036;-79
2022/02/05 11:26:36;;;;;;;15.68;6.28;;;;;;;17.25;41.33;100402.44;5053105;28;20025;-79
2022/02/05 11:29:05;;;;;;;15.38;7.03;;;;;;;17.29;41.41;100414.47;5052285;28;20033;-79
2022/02/05 11:31:37;;;;;;;13.25;5.35;;;;;;;17.40;41.37;100408.84;5052901;28;20052;-79
2022/02/05 11:34:28;;;;;;;12.10;5.25;;;;;;;17.22;41.38;100406.06;5052851;28;20422;-79
2022/02/05 11:37:02;;;;;;;13.23;4.05;;;;;;;17.18;41.21;100396.03;5052344;28;20056;-79
2022/02/05 11:39:43;;;;;;;8.27;4.38;;;;;;;17.09;41.73;100404.84;5052935;28;20040;-79
2022/02/05 11:42:29;;;;;;;9.52;5.03;;;;;;;16.99;42.25;100408.47;5057135;28;20112;-79
2022/02/05 11:44:56;;;;;;;15.05;4.75;;;;;;;17.12;42.00;100390.00;5059243;28;20031;-80
2022/02/05 11:47:28;;;;;;;13.80;4.90;;;;;;;16.94;43.51;100403.25;5056241;28;20075;-80
2022/02/05 11:49:56;;;;;;;10.15;3.85;;;;;;;16.79;43.41;100399.63;5057695;28;20029;-79
2022/02/05 11:52:37;;;;;;;10.18;4.28;;;;;;;16.49;43.92;100383.09;5056793;28;20029;-80
2022/02/05 11:55:08;;;;;;;12.88;5.07;;;;;;;16.49;44.89;100397.13;5056962;28;20475;-80
2022/02/05 11:57:45;;;;;;;9.90;4.68;;;;;;;16.38;45.98;100387.88;5056341;28;20028;-79
2022/02/05 12:00:24;;;;;;;9.98;5.32;;;;;;;16.53;45.41;100388.72;5056314;28;20479;-79
2022/02/05 12:03:01;;;;;;;9.82;4.32;;;;;;;16.64;45.41;100392.34;5056723;28;20025;-79
2022/02/05 12:05:32;;;;;;;11.10;5.03;;;;;;;16.86;44.91;100376.34;5057438;28;20021;-79
2022/02/05 12:08:01;;;;;;;21.60;4.72;;;;;;;16.87;45.68;100386.38;5056417;28;20467;-79
2022/02/05 12:10:48;;;;;;;11.73;4.95;;;;;;;16.97;46.25;100389.19;5055918;28;20036;-79
2022/02/05 12:13:34;;;;;;;12.18;5.88;;;;;;;17.09;45.53;100375.94;5056088;28;20041;-79
2022/02/05 12:16:09;;;;;;;12.00;5.18;;;;;;;16.89;46.00;100386.78;5056314;28;20025;-79
2022/02/05 12:19:09;;;;;;;14.15;5.30;;;;;;;16.78;45.23;100378.38;5056274;28;20029;-80
2022/02/05 12:21:56;;;;;;;15.93;5.82;;;;;;;17.06;44.96;100388.81;5055727;28;20017;-79
2022/02/05 12:24:41;;;;;;;10.27;4.15;;;;;;;16.74;45.41;100367.13;5055974;28;20060;-79
2022/02/05 12:27:31;;;;;;;12.85;5.25;;;;;;;17.48;44.54;100381.53;5055707;28;20025;-80
2022/02/05 12:30:38;;;;;;;14.57;5.15;;;;;;;16.81;47.39;100376.75;5057030;28;20067;-80
2022/02/05 12:33:06;;;;;;;13.32;6.00;;;;;;;16.69;48.34;100369.50;5055881;28;20021;-79
2022/02/05 12:35:34;;;;;;;12.05;5.25;;;;;;;16.75;49.07;100356.69;5055330;28;20133;-79
2022/02/05 12:38:01;;;;;;;15.10;6.90;;;;;;;17.00;48.06;100365.13;5057515;28;20028;-79
2022/02/05 12:40:28;;;;;;;17.98;5.70;;;;;;;17.03;47.72;100367.09;5039922;28;20070;-79
2022/02/05 12:42:58;;;;;;;13.98;4.75;;;;;;;17.21;46.38;100379.16;5056152;28;20025;-79
2022/02/05 12:45:35;;;;;;;14.00;4.30;;;;;;;17.16;45.70;100379.56;5055574;28;20032;-79
2022/02/05 12:48:05;;;;;;;14.98;4.82;;;;;;;16.71;46.54;100376.31;5056434;28;20487;-79
2022/02/05 12:50:39;;;;;;;16.30;4.63;;;;;;;16.77;46.81;100377.53;5055149;28;20025;-79
2022/02/05 12:53:08;;;;;;;10.68;3.05;;;;;;;16.67;47.06;100355.84;5054817;28;20025;-78
2022/02/05 12:55:44;;;;;;;13.63;4.32;;;;;;;16.73;46.71;100379.56;5055576;28;20395;-78
2022/02/05 12:58:10;;;;;;;7.55;3.28;;;;;;;16.48;47.17;100370.25;5056100;28;20263;-77
2022/02/05 13:00:36;;;;;;;12.00;4.30;;;;;;;16.16;48.33;100381.41;5055571;28;20032;-78
2022/02/05 13:03:01;;;;;;;11.13;3.40;;;;;;;15.98;48.66;100386.97;5055535;28;20033;-77
2022/02/05 13:05:32;;;;;;;9.38;3.85;;;;;;;15.92;49.65;100388.53;5055699;28;20125;-79
2022/02/05 13:08:03;;;;;;;9.75;4.40;;;;;;;15.73;50.33;100378.44;5056518;28;20052;-78
2022/02/05 13:10:44;;;;;;;13.88;4.88;;;;;;;15.86;51.12;100390.09;5055007;28;20032;-78
2022/02/05 13:13:10;;;;;;;13.32;5.00;;;;;;;15.74;51.97;100382.84;5055127;28;20031;-78
2022/02/05 13:15:41;;;;;;;12.05;5.75;;;;;;;15.74;52.03;100388.44;5055051;28;20021;-79
2022/02/05 13:29:44;;;;;;;16.95;8.63;;;;;;;15.25;51.21;100397.34;5057715;28;20146;-78
2022/02/05 13:34:31;;;;;;;21.38;8.40;;;;;;;14.90;52.77;100407.84;5058672;28;20056;-79
2022/02/05 13:37:06;;;;;;;;;;;;;;;14.85;53.25;100405.41;5079522;28;20048;-79
2022/02/05 13:42:21;;;;;;;15.27;7.30;;;;;;;14.59;54.09;100397.16;5080966;28;20425;-79
2022/02/05 13:45:03;;;;;;;14.48;8.35;;;;;;;14.73;54.41;100414.09;5081772;28;20028;-79
2022/02/05 13:47:33;;;;;;;32.97;13.48;;;;;;;14.63;54.47;100420.41;5080352;28;20129;-79
2022/02/05 13:50:01;;;;;;;18.92;8.80;;;;;;;14.64;55.42;100422.00;5061531;28;20071;-79
2022/02/05 13:52:35;;;;;;;20.27;7.25;;;;;;;14.53;56.17;100416.28;5063939;28;20028;-79
2022/02/05 13:55:25;;;;;;;15.70;6.18;;;;;;;14.46;56.22;100433.00;5062476;28;20040;-79
2022/02/05 13:58:04;;;;;;;19.95;9.13;;;;;;;14.50;56.30;100428.28;5061766;28;20028;-79
2022/02/05 14:00:51;;;;;;;15.82;7.97;;;;;;;14.34;55.85;100424.88;5060828;28;20121;-79
2022/02/05 14:03:36;;;;;;;14.05;6.85;;;;;;;14.30;56.38;100433.22;5060362;28;20024;-79
2022/02/05 14:06:07;;;;;;;20.17;8.85;;;;;;;14.24;56.07;100434.75;5059402;28;20035;-79
2022/02/05 14:08:42;;;;;;;15.98;6.90;;;;;;;14.27;55.89;100425.56;5077305;28;20056;-79
2022/02/05 14:11:09;;;;;;;14.88;6.20;;;;;;;14.16;55.51;100430.25;5061098;28;20040;-78
2022/02/05 14:13:39;;;;;;;16.88;7.13;;;;;;;14.07;56.21;100416.56;5059877;28;20016;-79
2022/02/05 14:16:08;;;;;;;15.95;8.60;;;;;;;14.10;56.25;100437.38;5058840;28;20462;-79